Time;durP1;ratioP1;P1;durP2;ratioP2;P2;SDS_P1;SDS_P2;PMS_P1;PMS_P2;Temp;Humidity;BMP_temperature;BMP_pressure;BME280_temperature;BME280_humidity;BME280_pressure;Samples;Min_cycle;Max_cycle;Signal;HPM_P1;HPM_P2
2023/09/01 00:01:34;;;;;;;122.13;115.80;;;;;;;;;;5037713;28;20029;-69
2023/09/01 00:04:00;;;;;;;128.35;122.00;;;;;;;;;;5027094;28;20033;-67
2023/09/01 00:06:25;;;;;;;112.97;107.30;;;;;;;;;;5042030;28;20447;-66
2023/09/01 00:08:50;;;;;;;92.57;87.90;;;;;;;;;;5037398;28;20033;-69
2023/09/01 00:11:17;;;;;;;106.10;100.80;;;;;;;;;;5041177;28;20017;-66
2023/09/01 00:13:43;;;;;;;120.90;114.90;;;;;;;;;;5038590;28;20029;-69
2023/09/01 00:16:08;;;;;;;117.35;111.47;;;;;;;;;;5037983;28;20021;-69
2023/09/01 00:18:34;;;;;;;122.95;116.75;;;;;;;;;;5041335;28;20398;-69
2023/09/01 00:21:00;;;;;;;127.10;120.75;;;;;;;;;;5037748;28;20024;-70
2023/09/01 00:23:26;;;;;;;129.85;123.28;;;;;;;;;;5038315;28;20036;-70
2023/09/01 00:25:56;;;;;;;144.25;137.00;;;;;;;;;;5037893;28;20060;-67
2023/09/01 00:28:22;;;;;;;139.52;132.23;;;;;;;;;;5038079;28;20546;-67
2023/09/01 00:30:51;;;;;;;140.38;133.40;;;;;;;;;;5041592;28;20060;-67
2023/09/01 00:33:17;;;;;;;143.95;136.77;;;;;;;;;;5037949;28;20032;-67
2023/09/01 00:35:42;;;;;;;144.05;136.80;;;;;;;;;;5039520;28;20516;-71
2023/09/01 00:38:07;;;;;;;138.23;131.32;;;;;;;;;;5038635;28;20037;-70
2023/09/01 00:40:33;;;;;;;173.23;164.65;;;;;;;;;;5035857;28;20028;-71
2023/09/01 00:42:58;;;;;;;177.90;169.10;;;;;;;;;;5037215;28;20033;-67
2023/09/01 00:45:23;;;;;;;176.40;167.68;;;;;;;;;;5039938;28;20029;-66
2023/09/01 00:47:50;;;;;;;164.73;156.55;;;;;;;;;;5038245;28;20456;-70
2023/09/01 00:50:15;;;;;;;168.57;159.80;;;;;;;;;;5039979;28;20060;-70
2023/09/01 00:52:41;;;;;;;186.63;177.45;;;;;;;;;;5038170;28;20056;-70
2023/09/01 00:55:06;;;;;;;180.57;171.70;;;;;;;;;;5036511;28;20084;-69
2023/09/01 00:57:32;;;;;;;182.10;173.13;;;;;;;;;;5039897;28;20060;-67
2023/09/01 00:59:58;;;;;;;182.52;173.50;;;;;;;;;;5037333;28;20056;-67
2023/09/01 01:02:24;;;;;;;185.75;176.57;;;;;;;;;;5023004;28;20486;-68
2023/09/01 01:04:49;;;;;;;185.93;176.75;;;;;;;;;;5037786;28;20659;-70
2023/09/01 01:07:28;;;;;;;199.10;189.30;;;;;;;;;;5038458;28;20029;-69
2023/09/01 01:10:13;;;;;;;159.90;151.90;;;;;;;;;;5036422;28;20033;-68
2023/09/01 01:12:45;;;;;;;178.55;169.77;;;;;;;;;;5038107;28;20415;-68
2023/09/01 01:15:13;;;;;;;187.52;178.25;;;;;;;;;;5042931;28;20021;-68
2023/09/01 01:17:43;;;;;;;169.75;161.35;;;;;;;;;;5049766;28;20755;-71
2023/09/01 01:20:18;;;;;;;168.88;160.35;;;;;;;;;;5019694;28;20253;-70
2023/09/01 01:22:51;;;;;;;167.43;159.07;;;;;;;;;;5036972;28;20265;-72
2023/09/01 01:25:19;;;;;;;191.77;182.27;;;;;;;;;;5020412;28;20026;-71
2023/09/01 01:27:44;;;;;;;182.27;173.25;;;;;;;;;;5036241;28;20091;-68
2023/09/01 01:30:13;;;;;;;193.15;183.60;;;;;;;;;;5035893;28;20033;-72
2023/09/01 01:32:39;;;;;;;193.13;183.60;;;;;;;;;;5033849;28;21395;-71
2023/09/01 01:35:31;;;;;;;187.13;177.90;;;;;;;;;;5036826;28;20717;-68
2023/09/01 01:38:08;;;;;;;181.40;172.40;;;;;;;;;;5039433;28;20029;-68
2023/09/01 01:40:34;;;;;;;179.07;170.18;;;;;;;;;;5037474;28;20033;-69
2023/09/01 01:43:03;;;;;;;179.57;170.57;;;;;;;;;;5038133;28;20037;-68
2023/09/01 01:45:29;;;;;;;170.90;162.20;;;;;;;;;;5036898;28;20053;-69
2023/09/01 01:47:54;;;;;;;183.45;174.27;;;;;;;;;;5038470;28;20021;-71
2023/09/01 01:50:20;;;;;;;193.45;183.77;;;;;;;;;;5035901;28;20453;-69
2023/09/01 01:52:45;;;;;;;177.48;168.63;;;;;;;;;;5036695;28;20021;-71
2023/09/01 01:55:10;;;;;;;177.68;168.77;;;;;;;;;;5038422;28;20422;-69
2023/09/01 01:57:39;;;;;;;178.77;169.77;;;;;;;;;;5035853;28;20076;-72
2023/09/01 02:00:11;;;;;;;181.88;172.68;;;;;;;;;;5037934;28;20362;-72
2023/09/01 02:02:38;;;;;;;159.13;151.10;;;;;;;;;;5035557;28;20394;-72
2023/09/01 02:05:06;;;;;;;168.35;159.90;;;;;;;;;;5036558;28;20078;-72
2023/09/01 02:07:35;;;;;;;176.90;168.07;;;;;;;;;;5040652;28;20601;-72
2023/09/01 02:10:01;;;;;;;167.13;158.70;;;;;;;;;;5036400;28;20033;-73
2023/09/01 02:12:26;;;;;;;167.77;159.30;;;;;;;;;;5037160;28;20037;-72
2023/09/01 02:14:52;;;;;;;166.25;157.82;;;;;;;;;;5036988;28;20378;-71
2023/09/01 02:17:17;;;;;;;165.60;157.32;;;;;;;;;;5038875;28;20038;-71
2023/09/01 02:19:43;;;;;;;169.55;161.00;;;;;;;;;;5024468;28;20025;-70
2023/09/01 02:22:08;;;;;;;168.68;160.23;;;;;;;;;;5037012;28;21020;-69
2023/09/01 02:24:34;;;;;;;167.43;159.07;;;;;;;;;;5038020;28;20410;-69
2023/09/01 02:26:59;;;;;;;166.18;157.65;;;;;;;;;;5038233;28;20060;-69
2023/09/01 02:29:24;;;;;;;182.00;172.85;;;;;;;;;;5037553;28;20443;-70
2023/09/01 02:31:53;;;;;;;181.18;172.18;;;;;;;;;;5035467;28;20071;-71
2023/09/01 02:34:18;;;;;;;165.45;157.10;;;;;;;;;;5038721;28;20581;-71
2023/09/01 02:36:43;;;;;;;172.73;164.05;;;;;;;;;;5037448;28;20033;-70
2023/09/01 02:39:09;;;;;;;177.68;168.82;;;;;;;;;;5036079;28;20112;-70
2023/09/01 02:41:34;;;;;;;169.73;161.27;;;;;;;;;;5035415;28;20215;-71
2023/09/01 02:43:59;;;;;;;157.80;149.88;;;;;;;;;;5023787;28;20561;-69
2023/09/01 02:46:25;;;;;;;170.27;161.68;;;;;;;;;;5036679;28;20446;-71
2023/09/01 02:48:50;;;;;;;161.50;153.40;;;;;;;;;;5038371;28;20047;-71
2023/09/01 02:51:17;;;;;;;166.38;158.07;;;;;;;;;;5032786;28;20094;-71
2023/09/01 02:53:42;;;;;;;165.77;157.38;;;;;;;;;;5037073;28;20029;-72
2023/09/01 02:56:08;;;;;;;171.93;163.30;;;;;;;;;;5035837;28;20467;-71
2023/09/01 02:58:33;;;;;;;161.90;153.85;;;;;;;;;;5038826;28;20302;-70
2023/09/01 03:01:06;;;;;;;169.07;160.60;;;;;;;;;;5037305;28;20022;-70
2023/09/01 03:03:32;;;;;;;157.82;149.95;;;;;;;;;;5050629;28;20124;-72
2023/09/01 03:05:58;;;;;;;167.07;158.70;;;;;;;;;;5036635;28;20107;-72
2023/09/01 03:08:23;;;;;;;161.90;153.82;;;;;;;;;;5038617;28;20065;-69
2023/09/01 03:10:49;;;;;;;173.15;164.57;;;;;;;;;;5037623;28;20037;-73
2023/09/01 03:13:15;;;;;;;166.50;158.23;;;;;;;;;;5037304;28;20052;-73
2023/09/01 03:15:41;;;;;;;163.10;155.00;;;;;;;;;;5034969;28;20084;-73
2023/09/01 03:18:08;;;;;;;151.50;143.95;;;;;;;;;;5037958;28;20033;-74
2023/09/01 03:20:34;;;;;;;153.63;145.95;;;;;;;;;;5037987;28;20045;-74
2023/09/01 03:22:59;;;;;;;163.50;155.35;;;;;;;;;;5034036;28;20731;-70
2023/09/01 03:25:25;;;;;;;174.25;165.60;;;;;;;;;;5036112;28;20481;-75
2023/09/01 03:27:50;;;;;;;166.27;157.98;;;;;;;;;;5033837;28;20434;-75
2023/09/01 03:30:15;;;;;;;159.32;151.40;;;;;;;;;;5020981;28;20034;-76
2023/09/01 03:32:41;;;;;;;154.23;146.50;;;;;;;;;;5038614;28;20072;-70
2023/09/01 03:35:07;;;;;;;168.90;160.52;;;;;;;;;;5057044;28;20427;-77
2023/09/01 03:37:33;;;;;;;157.80;149.98;;;;;;;;;;5041756;28;20044;-77
2023/09/01 03:39:59;;;;;;;156.95;149.13;;;;;;;;;;5023764;28;20091;-71
2023/09/01 03:42:26;;;;;;;163.85;155.70;;;;;;;;;;5045765;28;20068;-71
2023/09/01 03:44:52;;;;;;;155.45;147.70;;;;;;;;;;5042124;28;20050;-75
2023/09/01 03:47:18;;;;;;;163.10;154.88;;;;;;;;;;5037454;28;20030;-77
2023/09/01 03:49:44;;;;;;;166.05;157.77;;;;;;;;;;5038955;28;20116;-70
2023/09/01 03:52:09;;;;;;;175.75;166.95;;;;;;;;;;5043456;28;20108;-71
2023/09/01 03:54:34;;;;;;;163.75;155.60;;;;;;;;;;5022908;28;20119;-70
2023/09/01 03:57:00;;;;;;;153.70;145.98;;;;;;;;;;5045236;28;20029;-77
2023/09/01 03:59:25;;;;;;;150.75;143.23;;;;;;;;;;5042041;28;20064;-76
2023/09/01 04:01:51;;;;;;;155.32;147.63;;;;;;;;;;5037136;28;20036;-70
2023/09/01 04:04:18;;;;;;;143.82;136.65;;;;;;;;;;5024117;28;20041;-77
2023/09/01 04:06:44;;;;;;;149.40;142.00;;;;;;;;;;5043024;28;20525;-75
2023/09/01 04:09:10;;;;;;;147.00;139.65;;;;;;;;;;5039289;28;20033;-77
2023/09/01 04:11:36;;;;;;;158.00;150.10;;;;;;;;;;5037426;28;20419;-76
2023/09/01 04:14:01;;;;;;;158.07;150.18;;;;;;;;;;5041039;28;20055;-76
2023/09/01 04:16:27;;;;;;;150.27;142.77;;;;;;;;;;5038988;28;20052;-74
2023/09/01 04:18:54;;;;;;;134.45;127.75;;;;;;;;;;5039669;28;20028;-75
2023/09/01 04:21:19;;;;;;;134.93;128.20;;;;;;;;;;5039257;28;20040;-76
2023/09/01 04:23:45;;;;;;;138.05;131.23;;;;;;;;;;5040008;28;20018;-77
2023/09/01 04:26:11;;;;;;;143.43;136.35;;;;;;;;;;5039715;28;20118;-76
2023/09/01 04:28:37;;;;;;;142.77;135.68;;;;;;;;;;5040707;28;20033;-77
2023/09/01 04:31:10;;;;;;;140.13;133.20;;;;;;;;;;5040159;28;20036;-76
2023/09/01 04:33:35;;;;;;;137.98;131.15;;;;;;;;;;5027597;28;20037;-76
2023/09/01 04:36:05;;;;;;;134.57;127.82;;;;;;;;;;5039075;28;20055;-71
2023/09/01 04:38:31;;;;;;;125.63;119.35;;;;;;;;;;5041161;28;20135;-70
2023/09/01 04:40:57;;;;;;;147.35;139.98;;;;;;;;;;5036855;28;20064;-69
2023/09/01 04:43:25;;;;;;;144.80;137.60;;;;;;;;;;5039730;28;20112;-69
2023/09/01 04:45:54;;;;;;;140.38;133.32;;;;;;;;;;5040249;28;20024;-75
2023/09/01 04:48:20;;;;;;;149.45;141.98;;;;;;;;;;5040180;28;20492;-75
2023/09/01 04:50:46;;;;;;;157.80;149.95;;;;;;;;;;5036063;28;20051;-76
2023/09/01 04:53:12;;;;;;;135.75;128.88;;;;;;;;;;5040432;28;20499;-76
2023/09/01 04:55:37;;;;;;;130.80;124.22;;;;;;;;;;5035645;28;20033;-75
2023/09/01 04:58:03;;;;;;;131.73;125.15;;;;;;;;;;5041251;28;20025;-74
2023/09/01 05:00:28;;;;;;;138.15;131.20;;;;;;;;;;5038011;28;20064;-68
2023/09/01 05:02:54;;;;;;;128.23;121.82;;;;;;;;;;5041765;28;20036;-68
2023/09/01 05:05:19;;;;;;;132.23;125.47;;;;;;;;;;5039341;28;20025;-68
2023/09/01 05:07:45;;;;;;;135.90;129.13;;;;;;;;;;5040175;28;20021;-68
2023/09/01 05:10:10;;;;;;;135.60;128.68;;;;;;;;;;5042410;28;20431;-68
2023/09/01 05:12:36;;;;;;;125.60;119.32;;;;;;;;;;5009772;28;20364;-68
2023/09/01 05:15:03;;;;;;;135.25;128.40;;;;;;;;;;5040005;28;20029;-74
2023/09/01 05:17:29;;;;;;;133.90;126.47;;;;;;;;;;5041904;28;20095;-68
2023/09/01 05:19:54;;;;;;;144.10;136.75;;;;;;;;;;5039662;28;20464;-74
2023/09/01 05:22:19;;;;;;;135.02;128.25;;;;;;;;;;5040401;28;20104;-73
2023/09/01 05:24:47;;;;;;;124.07;117.80;;;;;;;;;;5042215;28;20114;-68
2023/09/01 05:27:13;;;;;;;128.48;122.05;;;;;;;;;;5022641;28;20518;-69
2023/09/01 05:29:38;;;;;;;120.15;114.00;;;;;;;;;;5037490;28;20104;-74
2023/09/01 05:32:03;;;;;;;107.18;101.82;;;;;;;;;;5039604;28;20032;-70
2023/09/01 05:34:29;;;;;;;109.70;104.15;;;;;;;;;;5038647;28;20448;-72
2023/09/01 05:36:56;;;;;;;113.10;107.43;;;;;;;;;;5035184;28;20043;-69
2023/09/01 05:39:21;;;;;;;117.25;111.38;;;;;;;;;;5036931;28;20033;-69
2023/09/01 05:41:47;;;;;;;112.88;107.13;;;;;;;;;;5036750;28;20031;-74
2023/09/01 05:44:12;;;;;;;112.57;106.93;;;;;;;;;;5036665;28;20039;-74
2023/09/01 05:46:38;;;;;;;101.43;96.30;;;;;;;;;;5039848;28;20061;-75
2023/09/01 05:49:03;;;;;;;107.07;101.32;;;;;;;;;;5024355;28;20112;-68
2023/09/01 05:51:28;;;;;;;105.90;100.57;;;;;;;;;;5035925;28;20478;-68
2023/09/01 05:53:54;;;;;;;105.55;100.20;;;;;;;;;;5038051;28;20123;-68
2023/09/01 05:56:19;;;;;;;102.45;97.30;;;;;;;;;;5038242;28;20099;-73
2023/09/01 05:58:44;;;;;;;107.07;101.78;;;;;;;;;;5038954;28;20033;-68
2023/09/01 06:01:10;;;;;;;107.05;101.60;;;;;;;;;;5037747;28;20041;-68
2023/09/01 06:03:35;;;;;;;104.55;99.25;;;;;;;;;;5036885;28;20118;-67
2023/09/01 06:06:00;;;;;;;111.50;105.90;;;;;;;;;;5036957;28;20603;-68
2023/09/01 06:08:26;;;;;;;121.13;115.10;;;;;;;;;;5037740;28;20052;-72
2023/09/01 06:11:05;;;;;;;106.60;101.03;;;;;;;;;;5035676;28;20067;-68
2023/09/01 06:13:31;;;;;;;104.03;98.75;;;;;;;;;;5037104;28;20029;-73
2023/09/01 06:15:56;;;;;;;119.88;113.82;;;;;;;;;;5037495;28;20102;-73
2023/09/01 06:18:22;;;;;;;115.00;109.20;;;;;;;;;;5036324;28;20068;-68
2023/09/01 06:20:47;;;;;;;117.70;111.13;;;;;;;;;;5035058;28;20037;-68
2023/09/01 06:23:12;;;;;;;115.72;109.93;;;;;;;;;;5036795;28;20037;-69
2023/09/01 06:25:38;;;;;;;108.18;102.70;;;;;;;;;;5038077;28;20033;-69
2023/09/01 06:28:03;;;;;;;98.78;93.88;;;;;;;;;;5044941;28;20052;-67
2023/09/01 06:30:29;;;;;;;98.00;93.05;;;;;;;;;;5037212;28;20029;-68
2023/09/01 06:32:54;;;;;;;96.47;91.60;;;;;;;;;;5037469;28;20029;-67
2023/09/01 06:35:20;;;;;;;75.90;72.07;;;;;;;;;;5038801;28;20027;-68
2023/09/01 06:37:45;;;;;;;89.28;84.53;;;;;;;;;;5040970;28;20033;-68
2023/09/01 06:40:11;;;;;;;87.90;83.50;;;;;;;;;;5037748;28;20164;-72
2023/09/01 06:42:39;;;;;;;96.70;91.82;;;;;;;;;;5035870;28;20408;-72
2023/09/01 06:45:05;;;;;;;86.43;82.05;;;;;;;;;;5034342;28;20614;-67
2023/09/01 06:47:30;;;;;;;75.68;71.88;;;;;;;;;;5037557;28;20088;-68
2023/09/01 06:49:56;;;;;;;79.70;75.57;;;;;;;;;;5038433;28;20064;-74
2023/09/01 06:52:21;;;;;;;89.63;85.15;;;;;;;;;;5037930;28;20044;-74
2023/09/01 06:54:46;;;;;;;75.82;72.05;;;;;;;;;;5036950;28;20329;-73
2023/09/01 06:57:12;;;;;;;71.82;68.20;;;;;;;;;;5052614;28;20112;-67
2023/09/01 06:59:37;;;;;;;49.50;46.88;;;;;;;;;;5021655;28;20052;-68
2023/09/01 07:02:03;;;;;;;51.40;48.78;;;;;;;;;;5037956;28;20118;-69
2023/09/01 07:04:28;;;;;;;43.42;41.20;;;;;;;;;;5040077;28;20504;-71
2023/09/01 07:06:54;;;;;;;46.83;44.33;;;;;;;;;;5041598;28;20036;-72
2023/09/01 07:09:19;;;;;;;50.47;47.85;;;;;;;;;;5044891;28;20044;-71
2023/09/01 07:11:44;;;;;;;48.65;46.08;;;;;;;;;;5042096;28;20034;-71
2023/09/01 07:14:10;;;;;;;59.83;56.83;;;;;;;;;;5046030;28;20044;-72
2023/09/01 07:16:35;;;;;;;49.28;46.75;;;;;;;;;;5043219;28;20593;-70
2023/09/01 07:19:00;;;;;;;52.08;49.38;;;;;;;;;;5027312;28;20056;-73
2023/09/01 07:21:26;;;;;;;36.85;34.85;;;;;;;;;;5042310;28;20084;-67
2023/09/01 07:23:51;;;;;;;34.70;32.85;;;;;;;;;;5042208;28;20051;-68
2023/09/01 07:26:17;;;;;;;35.00;33.17;;;;;;;;;;5025144;28;20628;-66
2023/09/01 07:28:43;;;;;;;37.08;35.13;;;;;;;;;;5040349;28;20135;-66
2023/09/01 07:31:12;;;;;;;45.50;43.13;;;;;;;;;;5039687;28;20116;-66
2023/09/01 07:33:41;;;;;;;49.83;47.30;;;;;;;;;;5041140;28;20088;-72
2023/09/01 07:36:10;;;;;;;36.55;34.40;;;;;;;;;;5042124;28;20032;-68
2023/09/01 07:38:35;;;;;;;39.08;37.00;;;;;;;;;;5042710;28;20052;-72
2023/09/01 07:41:01;;;;;;;48.08;45.60;;;;;;;;;;5042239;28;20020;-73
2023/09/01 07:43:26;;;;;;;54.17;51.45;;;;;;;;;;5040580;28;20037;-73
2023/09/01 07:45:51;;;;;;;43.65;41.42;;;;;;;;;;5039279;28;20028;-67
2023/09/01 07:48:17;;;;;;;55.63;52.50;;;;;;;;;;5024387;28;20029;-68
2023/09/01 07:50:42;;;;;;;52.55;49.85;;;;;;;;;;5041049;28;20049;-75
2023/09/01 07:53:08;;;;;;;62.53;59.33;;;;;;;;;;5040959;28;20055;-68
2023/09/01 07:55:33;;;;;;;66.07;62.72;;;;;;;;;;5041833;28;20070;-67
2023/09/01 07:57:59;;;;;;;58.55;55.60;;;;;;;;;;5044092;28;20486;-68
2023/09/01 08:00:24;;;;;;;65.97;62.60;;;;;;;;;;5025538;28;20529;-68
2023/09/01 08:02:50;;;;;;;78.15;74.20;;;;;;;;;;5040812;28;20036;-68
2023/09/01 08:05:15;;;;;;;84.93;80.68;;;;;;;;;;5044032;28;20100;-68
2023/09/01 08:07:41;;;;;;;60.03;57.00;;;;;;;;;;5042694;28;20071;-68
2023/09/01 08:10:09;;;;;;;69.15;65.68;;;;;;;;;;5042069;28;20044;-68
2023/09/01 08:12:34;;;;;;;49.53;47.00;;;;;;;;;;5046406;28;20033;-68
2023/09/01 08:15:00;;;;;;;38.40;36.30;;;;;;;;;;5043718;28;20100;-77
2023/09/01 08:17:25;;;;;;;44.60;42.22;;;;;;;;;;5041532;28;20033;-74
2023/09/01 08:19:51;;;;;;;38.75;36.75;;;;;;;;;;5041669;28;20108;-75
2023/09/01 08:22:17;;;;;;;38.95;36.92;;;;;;;;;;5043063;28;20052;-74
2023/09/01 08:24:43;;;;;;;41.67;39.53;;;;;;;;;;5043332;28;20047;-76
2023/09/01 08:27:08;;;;;;;39.42;37.38;;;;;;;;;;5038313;28;20459;-73
2023/09/01 08:29:34;;;;;;;40.03;37.97;;;;;;;;;;5041496;28;20044;-75
2023/09/01 08:32:00;;;;;;;42.65;40.40;;;;;;;;;;5040642;28;20025;-68
2023/09/01 08:34:27;;;;;;;40.25;38.15;;;;;;;;;;5041844;28;20044;-76
2023/09/01 08:36:52;;;;;;;42.05;39.88;;;;;;;;;;5041560;28;20037;-75
2023/09/01 08:39:17;;;;;;;36.22;34.33;;;;;;;;;;5042738;28;20530;-76
2023/09/01 08:41:44;;;;;;;40.75;38.65;;;;;;;;;;5027745;28;20037;-76
2023/09/01 08:44:11;;;;;;;35.22;33.40;;;;;;;;;;5037851;28;20036;-76
2023/09/01 08:46:37;;;;;;;34.00;32.25;;;;;;;;;;5037619;28;20039;-76
2023/09/01 08:49:04;;;;;;;36.80;34.88;;;;;;;;;;5039109;28;20048;-75
2023/09/01 08:51:29;;;;;;;36.58;34.63;;;;;;;;;;5039571;28;20041;-76
2023/09/01 08:53:55;;;;;;;37.33;35.20;;;;;;;;;;5038049;28;20047;-75
2023/09/01 08:56:20;;;;;;;36.90;34.83;;;;;;;;;;5041684;28;20044;-75
2023/09/01 08:58:46;;;;;;;36.78;34.88;;;;;;;;;;5040407;28;20570;-75
2023/09/01 09:01:13;;;;;;;34.78;32.97;;;;;;;;;;5038406;28;20028;-75
2023/09/01 09:03:39;;;;;;;38.80;36.72;;;;;;;;;;5011528;28;20541;-75
2023/09/01 09:06:05;;;;;;;38.75;36.67;;;;;;;;;;5035999;28;20069;-75
2023/09/01 09:08:30;;;;;;;40.10;38.05;;;;;;;;;;5039104;28;20641;-75
2023/09/01 09:10:56;;;;;;;44.45;42.17;;;;;;;;;;5039003;28;20634;-75
2023/09/01 09:13:26;;;;;;;39.10;37.10;;;;;;;;;;5036611;28;20122;-69
2023/09/01 09:16:12;;;;;;;38.55;36.42;;;;;;;;;;5038567;28;20037;-67
2023/09/01 09:18:40;;;;;;;45.30;42.75;;;;;;;;;;5038150;28;20470;-67
2023/09/01 09:21:25;;;;;;;56.42;53.55;;;;;;;;;;5025042;28;20044;-68
2023/09/01 09:23:51;;;;;;;65.40;62.13;;;;;;;;;;5021305;28;20037;-67
2023/09/01 09:26:23;;;;;;;65.05;61.75;;;;;;;;;;5039364;28;20298;-69
2023/09/01 09:28:49;;;;;;;70.97;67.43;;;;;;;;;;5037466;28;20535;-67
2023/09/01 09:31:15;;;;;;;91.68;87.20;;;;;;;;;;5043793;28;20090;-67
2023/09/01 09:33:42;;;;;;;87.90;83.28;;;;;;;;;;5039885;28;20037;-68
2023/09/01 09:36:07;;;;;;;79.75;75.75;;;;;;;;;;5049757;28;20037;-71
2023/09/01 09:38:49;;;;;;;66.47;63.15;;;;;;;;;;5039911;28;20159;-70
2023/09/01 09:41:15;;;;;;;63.78;60.60;;;;;;;;;;5038413;28;20561;-72
2023/09/01 09:43:47;;;;;;;48.45;45.65;;;;;;;;;;5038245;28;20061;-68
2023/09/01 09:46:13;;;;;;;44.58;42.25;;;;;;;;;;5038134;28;20411;-72
2023/09/01 09:48:40;;;;;;;40.40;38.33;;;;;;;;;;5021918;28;20049;-71
2023/09/01 09:51:10;;;;;;;56.03;53.17;;;;;;;;;;5024994;28;20045;-71
2023/09/01 09:53:36;;;;;;;55.03;52.28;;;;;;;;;;5039889;28;20131;-70
2023/09/01 09:56:33;;;;;;;64.45;61.20;;;;;;;;;;5031394;28;20033;-67
2023/09/01 09:59:03;;;;;;;63.55;60.40;;;;;;;;;;5035737;28;20683;-69
2023/09/01 10:01:32;;;;;;;72.68;68.97;;;;;;;;;;5035414;28;20033;-67
2023/09/01 10:04:02;;;;;;;59.25;56.25;;;;;;;;;;5049471;28;20457;-70
2023/09/01 10:06:27;;;;;;;49.72;47.05;;;;;;;;;;5041130;28;20463;-70
2023/09/01 10:08:53;;;;;;;72.93;69.25;;;;;;;;;;5039477;28;20121;-67
2023/09/01 10:11:21;;;;;;;124.85;118.75;;;;;;;;;;5037505;28;20480;-69
2023/09/01 10:13:46;;;;;;;119.85;114.03;;;;;;;;;;5038150;28;20037;-72
2023/09/01 10:16:13;;;;;;;157.93;150.27;;;;;;;;;;5036808;28;20076;-67
2023/09/01 10:18:42;;;;;;;162.52;154.63;;;;;;;;;;5037511;28;20083;-68
2023/09/01 10:21:08;;;;;;;139.07;132.25;;;;;;;;;;5055911;28;20057;-68
2023/09/01 10:23:33;;;;;;;164.93;156.73;;;;;;;;;;5038913;28;20053;-68
2023/09/01 10:26:15;;;;;;;152.40;144.95;;;;;;;;;;5035883;28;20349;-68
2023/09/01 10:28:54;;;;;;;136.30;129.65;;;;;;;;;;5040605;28;20465;-73
2023/09/01 10:31:20;;;;;;;143.50;136.48;;;;;;;;;;5021368;28;20547;-73
2023/09/01 10:33:45;;;;;;;125.80;119.68;;;;;;;;;;5036512;28;20044;-74
2023/09/01 10:36:13;;;;;;;153.65;146.18;;;;;;;;;;5035820;28;20048;-73
2023/09/01 10:38:39;;;;;;;162.07;154.20;;;;;;;;;;5037976;28;20036;-73
2023/09/01 10:41:04;;;;;;;184.10;173.73;;;;;;;;;;5019253;28;20032;-73
2023/09/01 10:43:53;;;;;;;216.25;205.90;;;;;;;;;;5035749;28;20037;-73
2023/09/01 10:46:18;;;;;;;219.30;208.77;;;;;;;;;;5036960;28;20416;-70
2023/09/01 10:48:50;;;;;;;225.90;215.07;;;;;;;;;;5037308;28;20068;-72
2023/09/01 10:51:25;;;;;;;227.10;216.20;;;;;;;;;;5038367;28;20059;-72
2023/09/01 10:53:52;;;;;;;222.98;212.27;;;;;;;;;;5034339;28;20029;-70
2023/09/01 10:56:19;;;;;;;219.32;208.80;;;;;;;;;;5036114;28;20045;-68
2023/09/01 10:58:49;;;;;;;256.95;244.63;;;;;;;;;;5037573;28;20048;-67
2023/09/01 11:01:33;;;;;;;279.58;266.13;;;;;;;;;;5038213;28;20033;-71
2023/09/01 11:04:13;;;;;;;271.23;258.08;;;;;;;;;;5036343;28;20487;-71
2023/09/01 11:06:58;;;;;;;261.48;248.52;;;;;;;;;;5035835;28;20559;-68
2023/09/01 11:09:32;;;;;;;277.08;263.67;;;;;;;;;;5039158;28;20043;-71
2023/09/01 11:11:58;;;;;;;277.13;263.77;;;;;;;;;;5034313;28;20037;-68
2023/09/01 11:14:24;;;;;;;279.33;265.70;;;;;;;;;;5037556;28;20058;-72
2023/09/01 11:16:49;;;;;;;273.98;260.77;;;;;;;;;;5033505;28;20617;-68
2023/09/01 11:19:14;;;;;;;267.13;254.18;;;;;;;;;;5032722;28;20021;-67
2023/09/01 11:21:41;;;;;;;256.50;244.23;;;;;;;;;;5037013;28;20112;-73
2023/09/01 11:24:07;;;;;;;227.50;216.63;;;;;;;;;;5034329;28;20045;-73
2023/09/01 11:26:36;;;;;;;205.93;196.10;;;;;;;;;;5038563;28;20047;-67
2023/09/01 11:29:02;;;;;;;178.70;170.07;;;;;;;;;;5038148;28;20033;-67
2023/09/01 11:31:42;;;;;;;176.95;168.35;;;;;;;;;;5036952;28;20037;-67
2023/09/01 11:34:08;;;;;;;180.20;171.50;;;;;;;;;;5038239;28;20040;-68
2023/09/01 11:36:34;;;;;;;142.50;135.57;;;;;;;;;;5037356;28;20463;-72
2023/09/01 11:39:00;;;;;;;127.10;120.88;;;;;;;;;;5036678;28;20272;-68
2023/09/01 11:41:27;;;;;;;112.95;107.40;;;;;;;;;;5027899;28;20036;-72
2023/09/01 11:43:54;;;;;;;77.35;73.45;;;;;;;;;;5022683;28;20055;-74
2023/09/01 11:46:33;;;;;;;73.10;69.50;;;;;;;;;;5039808;28;20037;-73
2023/09/01 11:49:02;;;;;;;79.73;75.67;;;;;;;;;;5023369;28;20041;-72
2023/09/01 11:51:36;;;;;;;67.45;64.05;;;;;;;;;;5042625;28;20660;-73
2023/09/01 11:54:01;;;;;;;78.40;74.25;;;;;;;;;;5038847;28;20075;-66
2023/09/01 11:56:27;;;;;;;87.00;82.72;;;;;;;;;;5041292;28;20032;-67
2023/09/01 11:58:54;;;;;;;91.47;86.97;;;;;;;;;;5041494;28;20087;-67
2023/09/01 12:01:21;;;;;;;60.75;57.58;;;;;;;;;;5039670;28;20360;-67
2023/09/01 12:03:49;;;;;;;67.30;63.83;;;;;;;;;;5020336;28;20041;-72
2023/09/01 12:06:15;;;;;;;64.32;61.13;;;;;;;;;;5036573;28;20030;-72
2023/09/01 12:08:41;;;;;;;81.05;77.07;;;;;;;;;;5039592;28;20033;-73
2023/09/01 12:11:07;;;;;;;75.95;72.05;;;;;;;;;;5035920;28;20036;-73
2023/09/01 12:13:32;;;;;;;134.30;127.75;;;;;;;;;;5020532;28;20029;-73
2023/09/01 12:16:00;;;;;;;179.38;170.70;;;;;;;;;;5039779;28;20040;-73
2023/09/01 12:18:35;;;;;;;189.30;180.20;;;;;;;;;;5038588;28;20384;-74
2023/09/01 12:21:02;;;;;;;165.07;157.00;;;;;;;;;;5039513;28;20491;-72
2023/09/01 12:23:30;;;;;;;167.05;158.93;;;;;;;;;;5021514;28;20045;-73
2023/09/01 12:25:56;;;;;;;181.68;172.93;;;;;;;;;;5044791;28;20160;-73
2023/09/01 12:28:24;;;;;;;161.18;153.32;;;;;;;;;;5041899;28;20537;-73
2023/09/01 12:30:49;;;;;;;158.00;150.38;;;;;;;;;;5037299;28;20040;-74
2023/09/01 12:33:14;;;;;;;134.43;127.82;;;;;;;;;;5025656;28;20462;-73
2023/09/01 12:35:40;;;;;;;111.88;106.43;;;;;;;;;;5042055;28;20039;-73
2023/09/01 12:38:06;;;;;;;99.10;94.22;;;;;;;;;;5037634;28;20523;-73
2023/09/01 12:40:33;;;;;;;125.78;119.65;;;;;;;;;;5020129;28;20108;-74
2023/09/01 12:42:59;;;;;;;149.43;142.15;;;;;;;;;;5039839;28;20780;-73
2023/09/01 12:45:25;;;;;;;131.43;125.05;;;;;;;;;;5039206;28;20442;-69
2023/09/01 12:47:50;;;;;;;171.95;163.68;;;;;;;;;;5040844;28;20044;-73
2023/09/01 12:50:15;;;;;;;214.27;204.00;;;;;;;;;;5038669;28;20483;-73
2023/09/01 12:52:41;;;;;;;214.68;204.38;;;;;;;;;;5038586;28;20487;-74
2023/09/01 12:55:06;;;;;;;231.15;219.93;;;;;;;;;;5039356;28;20087;-73
2023/09/01 12:57:33;;;;;;;163.82;155.63;;;;;;;;;;5039128;28;20127;-73
2023/09/01 12:59:58;;;;;;;236.15;224.55;;;;;;;;;;5039124;28;20037;-74
2023/09/01 13:02:23;;;;;;;194.70;185.07;;;;;;;;;;5035425;28;20077;-73
2023/09/01 13:04:49;;;;;;;137.05;130.18;;;;;;;;;;5037632;28;20029;-72
2023/09/01 13:07:16;;;;;;;129.48;122.95;;;;;;;;;;5021691;28;20538;-72
2023/09/01 13:09:41;;;;;;;106.80;101.40;;;;;;;;;;5042671;28;20148;-73
2023/09/01 13:12:07;;;;;;;63.65;60.38;;;;;;;;;;5023573;28;20111;-73
2023/09/01 13:14:33;;;;;;;27.63;26.17;;;;;;;;;;5019361;28;20056;-73
2023/09/01 13:16:58;;;;;;;41.58;39.42;;;;;;;;;;5040190;28;20374;-66
2023/09/01 13:19:24;;;;;;;22.75;21.55;;;;;;;;;;5038747;28;20321;-73
2023/09/01 13:21:49;;;;;;;24.20;22.90;;;;;;;;;;5038994;28;20317;-74
2023/09/01 13:24:15;;;;;;;22.42;21.23;;;;;;;;;;5038427;28;20469;-75
2023/09/01 13:26:40;;;;;;;20.67;19.58;;;;;;;;;;5038099;28;20055;-74
2023/09/01 13:29:05;;;;;;;19.90;18.80;;;;;;;;;;5038209;28;20064;-75
2023/09/01 13:31:31;;;;;;;21.60;20.40;;;;;;;;;;5006989;28;20111;-74
2023/09/01 13:33:56;;;;;;;23.27;22.05;;;;;;;;;;5038004;28;20444;-75
2023/09/01 13:36:21;;;;;;;21.10;19.90;;;;;;;;;;5039135;28;20065;-73
2023/09/01 13:38:49;;;;;;;25.40;24.00;;;;;;;;;;5042048;28;20915;-73
2023/09/01 13:41:15;;;;;;;23.83;22.52;;;;;;;;;;5036141;28;20025;-73
2023/09/01 13:43:40;;;;;;;20.88;19.75;;;;;;;;;;5038210;28;20039;-73
2023/09/01 13:46:16;;;;;;;21.05;19.92;;;;;;;;;;5039345;28;20479;-74
2023/09/01 13:48:41;;;;;;;24.60;23.30;;;;;;;;;;5039139;28;20040;-72
2023/09/01 13:51:07;;;;;;;29.40;27.85;;;;;;;;;;5040671;28;20048;-73
2023/09/01 13:53:32;;;;;;;30.73;29.13;;;;;;;;;;5037870;28;20033;-72
2023/09/01 13:55:57;;;;;;;24.02;22.70;;;;;;;;;;5037310;28;20109;-72
2023/09/01 13:58:23;;;;;;;36.60;34.63;;;;;;;;;;5037052;28;20055;-73
2023/09/01 14:00:49;;;;;;;45.70;43.38;;;;;;;;;;5037974;28;20399;-73